1P1

Plymouth Municipal Airport

Plymouth, New Hampshire, USA
METAR K1P1 251755Z AUTO 00000KT 3SM DZ BKN007 OVC011 11/10 A2997 RMK AO2 P0004 60016 T01110100 10111 20088
Observed Flight Rules
Apr-25 @ 17:55 UTC (20 minutes ago) Instrument Flight Rules
Visibility Clouds Conditions
3 miles
  • Broken at 700' AGL
  • Overcast at 1,100' AGL
  • Drizzle
Temperatures Readings Precipitation
Current 11°C / 52°F
Dewpoint 10°C / 50°F
Humidity 94%
Altimeter 29.97" Hg
Pressure 1015 hPa
Elevation 154
Current Rain 0.04
METAR K1P1 251755Z AUTO 00000KT 3SM DZ BKN007 OVC011 11/10 A2997 RMK AO2 P0004 60016 T01110100 10111 20088
Observed Flight Rules
Apr-25 @ 17:55 UTC
(20 minutes ago)
IFR
Clouds
  • Broken at 700' AGL
  • Overcast at 1,100' AGL
Conditions
  • Drizzle
Temperature Dewpoint
11°C / 52°F 10°C / 50°F
Humidity Altimeter Pressure
94% 29.97" Hg 1015 hPa
Current Rain
0.04